Time;durP1;ratioP1;P1;durP2;ratioP2;P2;SDS_P1;SDS_P2;PMS_P1;PMS_P2;Temp;Humidity;BMP_temperature;BMP_pressure;BME280_temperature;BME280_humidity;BME280_pressure;Samples;Min_cycle;Max_cycle;Signal;HPM_P1;HPM_P2
2021/05/08 00:02:00;;;;;;;5.13;4.40;;;4.90;69.80;;;3.84;55.09;95180.16;5050004;28;20253;-82
2021/05/08 00:04:29;;;;;;;6.15;4.40;;;4.90;70.00;;;3.78;55.24;95179.91;5035699;28;20227;-83
2021/05/08 00:06:58;;;;;;;7.50;4.47;;;4.90;70.00;;;3.75;55.66;95188.78;5025552;28;20207;-83
2021/05/08 00:09:26;;;;;;;5.13;4.35;;;4.80;70.10;;;3.77;55.74;95189.47;5035689;28;20211;-82
2021/05/08 00:11:55;;;;;;;6.22;4.63;;;4.80;70.20;;;3.75;55.78;95191.38;5035361;28;20611;-83
2021/05/08 00:14:24;;;;;;;6.53;4.80;;;4.80;70.40;;;3.78;56.32;95198.88;5038635;28;20669;-83
2021/05/08 00:16:51;;;;;;;5.38;4.53;;;4.80;70.60;;;3.77;56.12;95194.66;5070452;28;20226;-82
2021/05/08 00:19:18;;;;;;;6.35;4.32;;;4.80;70.60;;;3.78;55.79;95198.88;5018590;28;20262;-83
2021/05/08 00:21:45;;;;;;;5.75;4.43;;;4.70;70.50;;;3.76;55.61;95200.81;5046937;28;20206;-83
2021/05/08 00:24:11;;;;;;;6.85;4.65;;;4.70;70.40;;;3.72;55.46;95194.25;5038522;28;20249;-83
2021/05/08 00:26:39;;;;;;;5.80;3.83;;;4.70;70.40;;;3.65;55.58;95194.00;5022376;28;20199;-83
2021/05/08 00:29:06;;;;;;;5.53;3.78;;;4.70;70.30;;;3.65;55.13;95200.97;5021329;28;20623;-82
2021/05/08 00:31:33;;;;;;;4.93;3.78;;;4.70;70.30;;;3.59;55.03;95206.72;5034585;28;20212;-83
2021/05/08 00:34:00;;;;;;;6.28;3.97;;;4.60;70.20;;;3.55;55.26;95198.41;5034838;28;20601;-83
2021/05/08 00:36:27;;;;;;;6.07;4.07;;;4.60;70.20;;;3.52;55.32;95211.66;5018938;28;20188;-83
2021/05/08 00:38:53;;;;;;;5.07;3.97;;;4.60;70.20;;;3.48;55.20;95210.31;5021013;28;20227;-82
2021/05/08 00:41:20;;;;;;;5.60;3.92;;;4.60;70.20;;;3.45;55.62;95213.19;5038311;28;20206;-83
2021/05/08 00:43:53;;;;;;;6.80;4.32;;;4.50;70.30;;;3.43;55.44;95220.28;5021832;28;20223;-83
2021/05/08 00:46:23;;;;;;;4.28;3.78;;;4.50;70.30;;;3.39;55.39;95219.72;5055072;28;20707;-82
2021/05/08 00:48:51;;;;;;;5.38;4.05;;;4.40;70.30;;;3.37;55.24;95216.47;5038633;28;20234;-83
2021/05/08 00:51:18;;;;;;;4.32;3.53;;;4.40;70.40;;;3.32;55.37;95216.06;5021461;28;20214;-82
2021/05/08 00:53:46;;;;;;;5.22;3.97;;;4.40;70.30;;;3.24;55.27;95206.41;5071503;28;20756;-83
2021/05/08 00:56:14;;;;;;;5.25;3.70;;;4.40;70.40;;;3.24;55.21;95218.56;5035263;28;20736;-83
2021/05/08 00:58:42;;;;;;;6.07;3.85;;;4.30;70.30;;;3.16;55.37;95217.47;5017987;28;20262;-82
2021/05/08 01:01:09;;;;;;;5.85;3.92;;;4.30;70.30;;;3.18;55.52;95233.69;5018311;28;20249;-83
2021/05/08 01:03:36;;;;;;;5.40;4.00;;;4.30;70.40;;;3.13;55.76;95222.91;5034635;28;20228;-83
2021/05/08 01:06:03;;;;;;;4.07;3.67;;;4.20;70.40;;;3.15;55.72;95227.94;5017608;28;20223;-80
2021/05/08 01:08:31;;;;;;;4.53;3.63;;;4.20;70.50;;;3.14;55.69;95223.75;5006883;28;20269;-83
2021/05/08 01:10:59;;;;;;;4.35;3.58;;;4.20;70.60;;;3.10;55.54;95222.38;5029032;28;20254;-82
2021/05/08 01:13:32;;;;;;;5.38;3.67;;;4.10;70.60;;;3.10;55.74;95228.38;5034895;28;20216;-85
2021/05/08 01:15:59;;;;;;;4.55;3.70;;;4.10;70.70;;;3.07;55.49;95227.84;5037259;28;20697;-83
2021/05/08 01:18:29;;;;;;;5.20;3.97;;;4.10;70.70;;;3.07;55.54;95233.84;5053982;28;20227;-83
2021/05/08 01:20:57;;;;;;;4.65;3.53;;;4.10;71.50;;;3.05;55.77;95235.72;5037197;28;20206;-83
2021/05/08 01:23:23;;;;;;;4.88;3.80;;;4.10;70.70;;;3.03;55.39;95238.47;5053900;28;20255;-82
2021/05/08 01:25:50;;;;;;;4.40;3.40;;;4.10;70.70;;;3.02;55.63;95242.00;5033743;28;20200;-83
2021/05/08 01:28:17;;;;;;;4.80;3.55;;;4.00;70.70;;;3.00;55.72;95243.09;5016478;28;20223;-82
2021/05/08 01:30:44;;;;;;;5.18;3.65;;;4.10;70.70;;;2.94;56.03;95234.13;5054416;28;20207;-82
2021/05/08 01:33:13;;;;;;;6.47;4.35;;;4.00;70.90;;;2.94;55.78;95236.72;5069780;28;20345;-82
2021/05/08 01:35:41;;;;;;;4.70;3.80;;;4.00;70.70;;;2.96;55.90;95239.97;5017474;28;20292;-82
2021/05/08 01:38:08;;;;;;;4.97;4.03;;;4.00;70.90;;;2.96;55.97;95244.34;5034812;28;20239;-81
2021/05/08 01:40:40;;;;;;;5.18;3.88;;;4.00;70.80;;;2.97;55.99;95248.56;5053832;28;20745;-83
2021/05/08 01:43:13;;;;;;;5.47;3.92;;;4.00;71.10;;;2.93;56.07;95235.06;5069630;28;20692;-82
2021/05/08 01:45:40;;;;;;;4.57;3.70;;;3.90;70.90;;;2.97;55.88;95246.78;5020787;28;20660;-83
2021/05/08 01:48:10;;;;;;;5.13;3.78;;;4.00;71.10;;;2.98;56.17;95245.84;5069924;28;20223;-82
2021/05/08 01:50:38;;;;;;;6.45;3.88;;;4.00;71.10;;;3.00;56.22;95249.13;5037355;28;20230;-82
2021/05/08 01:53:04;;;;;;;4.13;3.47;;;4.00;71.20;;;2.97;55.96;95248.56;5037196;28;20571;-82
2021/05/08 01:55:32;;;;;;;4.53;3.60;;;4.00;71.10;;;2.97;56.70;95251.97;5036762;28;20200;-83
2021/05/08 01:58:09;;;;;;;5.68;4.00;;;4.00;71.30;;;3.04;56.93;95257.44;5050054;28;20607;-82
2021/05/08 02:00:42;;;;;;;5.75;4.10;;;4.00;71.60;;;3.07;56.67;95254.56;5037800;28;20266;-81
2021/05/08 02:03:12;;;;;;;5.15;3.90;;;4.00;71.70;;;3.02;56.54;95246.38;5037326;28;20235;-82
2021/05/08 02:05:41;;;;;;;7.18;4.28;;;4.00;71.60;;;3.04;57.09;95247.88;5068859;28;20199;-83
2021/05/08 02:08:26;;;;;;;5.90;4.20;;;4.00;71.60;;;3.05;57.47;95261.66;5043023;28;20280;-82
2021/05/08 02:10:53;;;;;;;6.45;4.05;;;4.00;71.70;;;3.05;57.22;95243.50;5040638;28;20206;-81
2021/05/08 02:13:20;;;;;;;5.10;3.90;;;4.00;71.70;;;3.11;57.10;95252.53;5040468;28;20668;-83
2021/05/08 02:15:47;;;;;;;5.82;4.30;;;4.10;71.70;;;3.12;58.11;95254.16;5073061;28;20214;-82
2021/05/08 02:18:15;;;;;;;4.40;3.70;;;4.10;71.70;;;3.16;57.80;95245.16;5040424;28;20245;-83
2021/05/08 02:20:44;;;;;;;5.90;3.97;;;4.10;71.70;;;3.18;57.70;95243.25;5040417;28;20688;-81
2021/05/08 02:23:16;;;;;;;5.63;4.10;;;4.10;71.70;;;3.19;57.57;95248.28;5040691;28;20276;-83
2021/05/08 02:25:47;;;;;;;5.40;3.85;;;4.10;71.70;;;3.19;57.71;95245.69;5056784;28;20202;-82
2021/05/08 02:28:15;;;;;;;8.05;4.18;;;4.10;71.80;;;3.18;58.15;95238.06;5040488;28;20234;-82
2021/05/08 02:30:42;;;;;;;4.63;3.83;;;4.10;71.70;;;3.24;58.14;95242.69;5023673;28;20207;-82
2021/05/08 02:33:11;;;;;;;4.68;3.90;;;4.20;71.80;;;3.28;57.55;95244.03;5057004;28;20227;-81
2021/05/08 02:35:40;;;;;;;4.82;3.88;;;4.20;71.80;;;3.26;58.06;95240.78;5055888;28;20203;-82
2021/05/08 02:38:07;;;;;;;4.82;4.03;;;4.20;72.70;;;3.23;58.28;95233.28;5056460;28;20227;-82
2021/05/08 02:40:38;;;;;;;4.30;3.63;;;4.30;71.80;;;3.28;58.12;95238.84;5056114;28;20226;-82
2021/05/08 02:43:08;;;;;;;4.28;3.55;;;4.20;71.80;;;3.27;58.30;95239.84;5056821;28;20227;-82
2021/05/08 02:45:35;;;;;;;4.88;3.35;;;4.20;71.80;;;3.25;58.23;95240.91;5052496;28;20666;-83
2021/05/08 02:48:03;;;;;;;4.38;3.30;;;4.20;71.80;;;3.29;58.64;95243.09;5025287;28;20589;-80
2021/05/08 02:50:34;;;;;;;4.43;3.25;;;4.30;71.80;;;3.30;57.94;95249.91;5040966;28;20231;-79
2021/05/08 02:53:05;;;;;;;4.15;3.15;;;4.20;72.70;;;3.33;58.43;95247.06;5040331;28;20229;-81
2021/05/08 02:55:35;;;;;;;5.25;3.20;;;4.20;71.80;;;3.34;58.18;95240.09;5039899;28;20207;-83
2021/05/08 02:58:02;;;;;;;4.03;3.35;;;4.30;71.90;;;3.35;57.72;95244.31;5071341;28;20215;-81
2021/05/08 03:00:30;;;;;;;3.97;3.33;;;4.30;71.90;;;3.39;58.01;95247.44;5019864;28;20267;-82
2021/05/08 03:02:59;;;;;;;4.53;3.22;;;4.30;71.90;;;3.42;57.88;95245.41;5039061;28;20258;-83
2021/05/08 03:05:26;;;;;;;4.90;3.30;;;4.30;71.90;;;3.43;57.67;95248.78;5072923;28;20203;-83
2021/05/08 03:07:57;;;;;;;2.97;2.70;;;4.30;71.90;;;3.47;57.63;95250.16;5055516;28;20595;-82
2021/05/08 03:10:24;;;;;;;3.95;2.90;;;4.30;71.80;;;3.51;57.33;95249.72;5039601;28;20227;-82
2021/05/08 03:12:51;;;;;;;3.78;2.85;;;4.40;71.90;;;3.53;57.27;95255.59;5039563;28;20638;-83
2021/05/08 03:15:18;;;;;;;2.88;2.45;;;4.40;71.90;;;3.54;57.17;95256.44;5055978;28;20222;-83
2021/05/08 03:17:44;;;;;;;3.65;2.97;;;4.40;72.00;;;3.52;57.17;95260.94;5034412;28;20689;-81
2021/05/08 03:20:12;;;;;;;3.45;2.97;;;4.40;71.90;;;3.50;56.75;95258.50;5036387;28;20279;-81
2021/05/08 03:22:40;;;;;;;2.78;2.47;;;4.40;71.90;;;3.49;56.95;95258.59;5039472;28;20227;-79
2021/05/08 03:25:07;;;;;;;3.10;2.80;;;4.40;71.90;;;3.55;57.08;95255.47;5039025;28;20657;-82
2021/05/08 03:27:34;;;;;;;3.15;2.67;;;4.40;71.90;;;3.55;56.98;95258.06;5035490;28;20266;-81
2021/05/08 03:30:00;;;;;;;3.05;2.58;;;4.40;71.80;;;3.56;56.75;95264.06;5035780;28;20203;-81
2021/05/08 03:32:27;;;;;;;2.92;2.63;;;4.40;71.70;;;3.60;56.73;95266.25;5019196;28;20228;-81
2021/05/08 03:34:55;;;;;;;3.47;2.58;;;4.50;71.60;;;3.60;56.47;95273.19;5035613;28;20349;-82
2021/05/08 03:37:24;;;;;;;3.03;2.60;;;4.50;71.50;;;3.60;56.58;95268.84;5047944;28;20716;-81
2021/05/08 03:39:52;;;;;;;2.95;2.63;;;4.50;71.40;;;3.61;56.61;95267.06;5029839;28;20315;-82
2021/05/08 03:42:18;;;;;;;2.72;2.47;;;4.50;71.40;;;3.61;56.50;95270.47;5034141;28;20217;-82
2021/05/08 03:44:45;;;;;;;2.92;2.60;;;4.50;71.40;;;3.66;56.73;95270.88;5034734;28;20597;-83
2021/05/08 03:47:11;;;;;;;3.83;2.78;;;4.50;71.50;;;3.70;56.76;95268.81;5053237;28;20234;-82
2021/05/08 03:49:38;;;;;;;4.20;3.00;;;4.60;71.90;;;3.78;56.65;95276.69;5053465;28;20191;-82
2021/05/08 03:52:05;;;;;;;3.13;2.70;;;4.60;71.80;;;3.86;56.56;95273.41;5037170;28;20573;-82
2021/05/08 03:54:32;;;;;;;2.85;2.58;;;4.60;71.80;;;3.91;56.27;95280.78;5036225;28;20233;-83
2021/05/08 03:56:59;;;;;;;2.60;2.40;;;4.70;71.80;;;3.98;56.36;95268.88;5038685;28;20195;-82
2021/05/08 03:59:27;;;;;;;3.05;2.65;;;4.70;71.70;;;3.99;56.28;95273.94;5051319;28;20256;-83
2021/05/08 04:01:53;;;;;;;3.13;2.80;;;4.70;71.60;;;4.06;56.60;95276.75;5007652;28;20683;-81
2021/05/08 04:04:21;;;;;;;3.33;3.03;;;4.90;71.60;;;4.10;56.11;95277.28;5018642;28;20200;-82
2021/05/08 04:06:48;;;;;;;4.57;3.00;;;4.90;71.50;;;4.14;56.45;95273.47;5035704;28;20204;-83
2021/05/08 04:09:14;;;;;;;3.00;2.70;;;4.90;71.50;;;4.20;55.92;95278.09;5038508;28;20612;-83
2021/05/08 04:11:43;;;;;;;2.97;2.67;;;4.90;71.50;;;4.23;55.88;95267.41;5039232;28;20298;-83
2021/05/08 04:14:10;;;;;;;2.83;2.60;;;5.00;71.50;;;4.31;56.01;95266.69;5030864;28;20250;-83
2021/05/08 04:16:36;;;;;;;3.40;3.10;;;5.20;71.60;;;4.38;56.06;95279.91;5032845;28;20280;-83
2021/05/08 04:19:04;;;;;;;2.97;2.63;;;5.10;71.50;;;4.41;55.77;95266.66;5035289;28;20220;-83
2021/05/08 04:21:32;;;;;;;3.08;2.78;;;5.10;71.40;;;4.51;55.87;95271.78;5039159;28;20235;-83
2021/05/08 04:23:59;;;;;;;3.40;3.00;;;5.20;71.40;;;4.59;55.27;95277.88;5036341;28;20225;-81
2021/05/08 04:26:26;;;;;;;3.17;2.60;;;5.20;71.30;;;4.62;55.54;95274.19;5035264;28;20247;-81
2021/05/08 04:28:53;;;;;;;2.85;2.58;;;5.30;71.40;;;4.70;55.82;95282.06;5034915;28;20216;-84
2021/05/08 04:31:20;;;;;;;3.30;2.72;;;5.30;71.40;;;4.74;55.35;95280.00;5018364;28;20218;-84
2021/05/08 04:33:47;;;;;;;3.03;2.72;;;5.40;71.30;;;4.79;55.51;95277.78;5024964;28;20232;-83
2021/05/08 04:36:14;;;;;;;2.95;2.63;;;5.40;71.20;;;4.87;55.25;95290.84;5019025;28;20227;-84
2021/05/08 04:38:41;;;;;;;3.00;2.70;;;5.50;71.10;;;4.92;55.57;95283.44;5031804;28;20226;-84
2021/05/08 04:41:10;;;;;;;4.30;2.70;;;5.60;71.20;;;5.00;55.15;95282.69;5036407;28;20219;-83
2021/05/08 04:43:37;;;;;;;3.28;2.47;;;5.60;71.10;;;5.05;55.15;95283.03;5046107;28;20298;-84
2021/05/08 04:46:03;;;;;;;3.00;2.50;;;5.80;71.20;;;5.08;54.97;95287.16;5038713;28;20676;-83
2021/05/08 04:48:33;;;;;;;2.53;2.20;;;5.70;71.10;;;5.19;55.01;95289.53;5017757;28;20313;-83
2021/05/08 04:51:01;;;;;;;2.67;2.47;;;5.80;71.10;;;5.27;54.80;95288.78;5019159;28;20222;-80
2021/05/08 04:53:28;;;;;;;2.88;2.67;;;5.90;71.00;;;5.30;54.70;95278.09;5050650;28;20251;-85
2021/05/08 04:55:54;;;;;;;2.50;2.30;;;6.00;71.00;;;5.41;54.61;95284.84;5034815;28;20203;-84
2021/05/08 04:58:21;;;;;;;2.88;2.60;;;6.00;70.90;;;5.43;54.66;95281.13;5018787;28;20624;-84
2021/05/08 05:00:48;;;;;;;3.08;2.45;;;6.00;70.70;;;5.53;54.48;95291.44;5055895;28;20223;-85
2021/05/08 05:03:15;;;;;;;2.50;2.30;;;6.10;70.70;;;5.60;54.18;95289.03;5068237;28;20729;-84
2021/05/08 05:05:41;;;;;;;3.20;2.22;;;6.20;70.70;;;5.62;54.38;95284.50;5037953;28;20286;-84
2021/05/08 05:08:08;;;;;;;2.50;2.30;;;6.30;70.70;;;5.73;54.14;95289.44;5022032;28;20610;-84
2021/05/08 05:10:34;;;;;;;3.10;2.50;;;6.30;70.60;;;5.80;53.74;95294.88;5051398;28;20717;-83
2021/05/08 05:13:01;;;;;;;2.70;2.50;;;6.30;70.40;;;5.87;53.84;95295.91;5028005;28;20694;-84
2021/05/08 05:15:28;;;;;;;3.05;2.55;;;6.50;71.40;;;5.93;53.83;95294.47;5042781;28;20204;-84
2021/05/08 05:17:55;;;;;;;2.50;2.30;;;6.50;70.40;;;6.02;53.73;95297.97;5025307;28;20245;-84
2021/05/08 05:20:22;;;;;;;3.17;2.53;;;6.50;70.40;;;6.05;53.84;95292.44;5054058;28;20234;-84
2021/05/08 05:22:50;;;;;;;2.92;2.63;;;6.60;70.30;;;6.15;53.42;95300.16;5047234;28;20700;-85
2021/05/08 05:25:16;;;;;;;3.15;2.60;;;6.70;70.20;;;6.23;53.39;95293.19;5037416;28;20211;-84
2021/05/08 05:27:43;;;;;;;3.53;2.60;;;6.70;70.20;;;6.27;53.30;95300.72;5070419;28;20223;-85
2021/05/08 05:30:10;;;;;;;4.13;2.60;;;6.80;70.10;;;6.34;53.12;95292.09;5034167;28;20212;-85
2021/05/08 05:32:37;;;;;;;3.42;2.78;;;6.80;70.00;;;6.40;53.23;95299.28;5058902;28;20215;-84
2021/05/08 05:35:05;;;;;;;2.88;2.50;;;7.00;70.00;;;6.53;53.28;95308.47;5037810;28;20203;-84
2021/05/08 05:37:31;;;;;;;2.50;2.30;;;7.00;69.90;;;6.59;52.90;95314.84;5037147;28;20254;-84
2021/05/08 05:39:58;;;;;;;3.35;2.53;;;7.10;69.80;;;6.63;52.94;95319.59;5037351;28;20257;-84
2021/05/08 05:42:26;;;;;;;2.28;2.10;;;7.10;69.70;;;6.70;52.90;95322.38;5036795;28;20227;-84
2021/05/08 05:44:53;;;;;;;3.13;2.50;;;7.10;69.70;;;6.78;52.59;95321.59;5037041;28;20297;-83
2021/05/08 05:47:21;;;;;;;2.60;2.40;;;7.20;69.50;;;6.85;52.64;95323.41;5037229;28;20230;-84
2021/05/08 05:49:51;;;;;;;2.50;2.28;;;7.30;69.70;;;6.91;52.33;95314.16;5037855;28;20206;-84
2021/05/08 05:52:21;;;;;;;2.35;2.15;;;7.30;69.60;;;6.97;52.47;95313.53;5037607;28;20230;-84
2021/05/08 05:54:50;;;;;;;2.60;2.40;;;7.40;69.60;;;7.08;52.18;95319.41;5021149;28;20211;-85
2021/05/08 05:57:18;;;;;;;3.30;2.70;;;7.50;69.50;;;7.18;52.25;95323.50;5048728;28;20227;-85
2021/05/08 05:59:45;;;;;;;2.90;2.60;;;7.60;69.50;;;7.21;52.09;95314.53;5004985;28;20736;-84
2021/05/08 06:02:13;;;;;;;3.55;2.60;;;7.60;69.40;;;7.33;52.35;95322.88;5018169;28;20342;-84
2021/05/08 06:04:40;;;;;;;3.55;2.83;;;7.70;70.30;;;7.42;52.20;95319.31;5039166;28;20207;-85
2021/05/08 06:07:06;;;;;;;3.05;2.78;;;7.80;69.40;;;7.42;52.14;95316.69;5018194;28;20199;-84
2021/05/08 06:09:33;;;;;;;3.00;2.70;;;7.90;69.50;;;7.58;52.06;95321.09;5003875;28;20238;-85
2021/05/08 06:12:00;;;;;;;3.10;2.78;;;7.90;69.40;;;7.68;52.13;95323.56;5053670;28;20238;-83
2021/05/08 06:14:27;;;;;;;3.22;2.92;;;8.00;69.60;;;7.75;52.45;95326.31;5036575;28;20594;-83
2021/05/08 06:16:55;;;;;;;3.17;2.88;;;8.10;69.50;;;7.85;51.79;95333.00;5036511;28;20223;-82
2021/05/08 06:19:24;;;;;;;3.22;2.92;;;8.20;69.30;;;7.94;51.88;95336.41;5053507;28;20215;-81
2021/05/08 06:21:51;;;;;;;3.38;3.08;;;8.20;69.30;;;8.00;52.05;95324.50;5020424;28;20237;-81
2021/05/08 06:24:18;;;;;;;3.40;3.05;;;8.30;69.30;;;8.09;51.44;95327.91;5051898;28;20196;-82
2021/05/08 06:26:45;;;;;;;5.32;3.60;;;8.40;69.20;;;8.14;51.51;95317.78;5051361;28;20208;-82
2021/05/08 06:29:11;;;;;;;3.28;2.97;;;8.50;69.00;;;8.24;51.55;95325.44;5035230;28;20292;-82
2021/05/08 06:31:38;;;;;;;3.97;3.10;;;8.50;69.10;;;8.31;51.53;95324.63;5034976;28;20211;-82
2021/05/08 06:34:05;;;;;;;3.30;3.00;;;8.60;69.30;;;8.37;51.56;95312.66;5051673;28;20723;-80
2021/05/08 06:36:32;;;;;;;3.85;3.28;;;8.70;69.20;;;8.46;51.43;95318.69;5032280;28;20212;-82
2021/05/08 06:38:58;;;;;;;4.60;3.90;;;8.70;69.00;;;8.51;51.25;95311.19;5045727;28;20249;-81
2021/05/08 06:41:24;;;;;;;3.78;3.20;;;8.90;69.00;;;8.61;51.58;95318.81;5051017;28;20211;-82
2021/05/08 06:43:52;;;;;;;4.60;3.15;;;8.90;69.00;;;8.68;51.31;95313.72;5035882;28;20312;-81
2021/05/08 06:46:18;;;;;;;4.03;3.63;;;9.00;69.20;;;8.70;50.76;95317.78;5010402;28;20257;-82
2021/05/08 06:48:45;;;;;;;5.65;4.75;;;9.00;68.90;;;8.77;50.29;95310.09;5052371;28;20219;-82
2021/05/08 06:51:11;;;;;;;4.45;3.92;;;9.10;68.50;;;8.86;50.35;95311.69;5051639;28;20724;-83
2021/05/08 06:53:38;;;;;;;4.75;3.90;;;9.10;68.50;;;8.93;50.38;95312.63;5033833;28;20207;-82
2021/05/08 06:56:05;;;;;;;5.38;4.05;;;9.20;68.50;;;8.97;50.00;95311.31;5052631;28;20199;-82
2021/05/08 06:58:31;;;;;;;4.03;3.45;;;9.30;68.40;;;9.05;49.88;95314.88;5054533;28;20219;-82
2021/05/08 07:00:58;;;;;;;5.13;3.90;;;9.30;68.10;;;9.12;49.70;95315.81;5054634;28;20281;-82
2021/05/08 07:03:24;;;;;;;5.15;4.30;;;9.40;68.00;;;9.13;49.16;95307.78;5037916;28;20219;-82
2021/05/08 07:05:51;;;;;;;5.05;4.25;;;9.50;67.60;;;9.24;49.55;95318.81;5070086;28;20316;-82
2021/05/08 07:08:17;;;;;;;4.65;3.63;;;9.50;67.80;;;9.32;49.81;95310.94;5038203;28;20223;-82
2021/05/08 07:10:50;;;;;;;4.75;3.60;;;9.60;68.00;;;9.42;49.67;95308.09;5056239;28;20226;-82
2021/05/08 07:13:17;;;;;;;4.43;3.97;;;9.60;67.60;;;9.48;48.43;95315.22;5072122;28;20226;-83
2021/05/08 07:15:54;;;;;;;4.32;3.67;;;9.70;67.10;;;9.54;48.55;95308.50;5040789;28;20293;-83
2021/05/08 07:18:21;;;;;;;4.55;3.50;;;9.80;67.10;;;9.55;47.40;95308.31;5039559;28;20218;-82
2021/05/08 07:20:48;;;;;;;3.65;3.30;;;9.90;66.80;;;9.64;48.48;95298.59;5055760;28;20226;-84
2021/05/08 07:23:14;;;;;;;3.28;2.97;;;9.90;67.10;;;9.75;48.99;95310.44;5056083;28;20243;-82
2021/05/08 07:25:41;;;;;;;2.95;2.65;;;10.00;65.90;;;9.80;49.03;95302.88;5039170;28;20207;-83
2021/05/08 07:28:15;;;;;;;3.05;2.75;;;10.00;65.90;;;9.92;47.99;95306.72;5039415;28;20222;-83
2021/05/08 07:30:44;;;;;;;3.75;3.10;;;10.10;65.60;;;10.03;47.83;95312.50;5055906;28;20207;-83
2021/05/08 07:33:12;;;;;;;3.55;3.00;;;10.30;65.50;;;10.11;48.06;95307.19;5039161;28;20284;-83
2021/05/08 07:35:40;;;;;;;3.20;2.90;;;10.30;65.40;;;10.22;48.38;95309.34;5039214;28;20272;-83
2021/05/08 07:38:08;;;;;;;2.80;2.60;;;10.30;65.50;;;10.31;48.29;95309.28;5054925;28;20231;-83
2021/05/08 07:40:35;;;;;;;4.25;2.95;;;10.40;65.50;;;10.33;47.53;95308.09;5055055;28;20582;-83
2021/05/08 07:43:02;;;;;;;3.15;2.78;;;10.50;65.10;;;10.37;47.77;95305.97;5039266;28;20230;-82
2021/05/08 07:45:31;;;;;;;3.45;2.83;;;10.60;65.20;;;10.44;48.09;95304.25;5038775;28;20203;-81
2021/05/08 07:47:58;;;;;;;3.08;2.50;;;10.60;65.00;;;10.46;47.74;95304.06;5022535;28;20253;-80
2021/05/08 07:50:27;;;;;;;3.10;2.80;;;10.70;65.10;;;10.60;47.92;95305.06;5055798;28;20203;-80
2021/05/08 07:52:54;;;;;;;3.05;2.40;;;10.70;65.10;;;10.68;47.66;95302.31;5055639;28;20219;-80
2021/05/08 07:55:22;;;;;;;3.00;2.70;;;10.80;64.80;;;10.69;45.79;95298.72;5055519;28;20614;-80
2021/05/08 07:57:48;;;;;;;2.88;2.55;;;10.90;64.20;;;10.64;45.41;95293.22;5038712;28;20273;-81
2021/05/08 08:00:18;;;;;;;3.63;2.30;;;10.90;63.50;;;10.68;45.52;95303.16;5071852;28;20241;-80
2021/05/08 08:02:45;;;;;;;3.25;2.30;;;10.90;63.40;;;10.71;45.79;95291.47;5055576;28;20571;-83
2021/05/08 08:05:12;;;;;;;4.65;3.10;;;11.00;64.80;;;10.82;45.44;95300.69;5038811;28;20204;-80
2021/05/08 08:07:39;;;;;;;2.80;2.50;;;11.00;63.50;;;10.88;45.95;95305.22;5038359;28;20219;-81
2021/05/08 08:10:08;;;;;;;2.67;2.40;;;11.10;63.80;;;10.97;45.56;95306.72;5039165;28;20195;-80
2021/05/08 08:12:37;;;;;;;2.70;2.50;;;11.10;63.70;;;11.04;45.35;95302.34;5055416;28;20592;-80
2021/05/08 08:15:05;;;;;;;2.38;2.17;;;11.30;63.60;;;11.12;45.91;95296.19;5038455;28;20581;-80
2021/05/08 08:17:33;;;;;;;2.40;2.10;;;11.30;63.90;;;11.32;46.18;95299.03;5054504;28;20754;-80
2021/05/08 08:19:59;;;;;;;2.50;2.20;;;11.30;65.00;;;11.45;46.45;95292.25;5038619;28;20790;-80
2021/05/08 08:22:26;;;;;;;3.15;2.80;;;11.40;64.40;;;11.59;45.48;95296.66;5038477;28;20318;-81
2021/05/08 08:24:56;;;;;;;2.70;2.50;;;11.60;63.60;;;11.66;44.87;95299.34;5038326;28;20687;-83
2021/05/08 08:27:22;;;;;;;2.75;2.40;;;11.70;63.60;;;11.72;45.14;95289.88;5038821;28;20222;-80
2021/05/08 08:29:49;;;;;;;2.60;2.40;;;11.70;63.60;;;11.77;44.27;95293.56;5054982;28;20302;-79
2021/05/08 08:32:16;;;;;;;2.50;2.30;;;11.80;63.20;;;11.80;44.73;95281.88;5038477;28;20219;-81
2021/05/08 08:34:43;;;;;;;3.42;2.60;;;12.00;63.20;;;11.84;44.09;95278.66;5038157;28;20214;-80
2021/05/08 08:37:10;;;;;;;2.47;2.28;;;12.00;62.70;;;11.93;44.66;95289.84;5038336;28;20738;-81
2021/05/08 08:39:37;;;;;;;2.78;2.30;;;12.10;62.90;;;12.00;44.25;95289.94;5038323;28;20226;-81
2021/05/08 08:42:07;;;;;;;3.25;2.50;;;12.10;62.80;;;12.03;42.92;95283.50;5038109;28;20669;-80
2021/05/08 08:44:38;;;;;;;2.60;2.38;;;12.20;61.80;;;12.07;43.61;95285.56;5070463;28;20199;-80
2021/05/08 08:47:28;;;;;;;2.45;2.25;;;12.20;62.10;;;12.10;43.53;95284.34;5037994;28;20202;-80
2021/05/08 08:50:02;;;;;;;2.47;2.28;;;12.20;62.40;;;12.20;44.05;95286.66;5071236;28;20722;-82
2021/05/08 08:52:29;;;;;;;2.70;2.30;;;12.30;62.00;;;12.23;43.29;95281.81;5037952;28;20272;-80
2021/05/08 08:54:57;;;;;;;2.50;2.30;;;12.40;62.10;;;12.28;43.02;95289.09;5037979;28;20234;-80
2021/05/08 08:57:32;;;;;;;2.53;2.33;;;12.40;61.70;;;12.32;42.32;95291.16;5038025;28;20223;-80
2021/05/08 09:00:00;;;;;;;2.80;2.50;;;12.50;61.20;;;12.38;42.12;95294.84;5054342;28;20214;-81
2021/05/08 09:02:28;;;;;;;3.08;2.88;;;12.50;61.40;;;12.35;39.13;95282.06;5054315;28;20223;-80
2021/05/08 09:04:58;;;;;;;2.90;2.60;;;12.50;59.30;;;12.36;40.16;95275.81;5038762;28;20202;-82
2021/05/08 09:07:30;;;;;;;4.28;3.00;;;12.60;60.10;;;12.43;39.37;95281.91;5053523;28;20210;-79
2021/05/08 09:09:57;;;;;;;2.88;2.67;;;12.60;59.30;;;12.46;38.69;95278.06;5070800;28;20198;-79
2021/05/08 09:12:29;;;;;;;2.90;2.60;;;12.60;59.50;;;12.51;40.07;95267.78;5054105;28;20230;-80
2021/05/08 09:14:57;;;;;;;2.50;2.20;;;12.70;59.40;;;12.62;41.10;95272.50;5038702;28;20194;-79
2021/05/08 09:17:26;;;;;;;2.50;2.30;;;12.70;60.30;;;12.73;41.51;95265.03;5070340;28;20305;-79
2021/05/08 09:20:02;;;;;;;3.30;2.78;;;12.70;60.20;;;12.79;40.37;95273.00;5037429;28;20256;-80
2021/05/08 09:22:40;;;;;;;2.70;2.50;;;12.80;60.00;;;12.89;41.45;95250.72;5037587;28;20804;-80
2021/05/08 09:25:11;;;;;;;2.88;2.58;;;12.90;60.70;;;12.95;40.85;95252.56;5037578;28;20714;-80
2021/05/08 09:27:44;;;;;;;2.40;2.20;;;13.00;60.40;;;13.05;41.44;95260.09;5037471;28;20226;-81
2021/05/08 09:30:19;;;;;;;2.45;2.13;;;13.00;60.60;;;13.11;40.53;95254.84;5037374;28;20210;-81
2021/05/08 09:32:56;;;;;;;2.85;2.55;;;13.10;60.50;;;13.16;39.61;95264.78;5037347;28;20266;-81
2021/05/08 09:35:24;;;;;;;3.38;2.78;;;13.30;59.50;;;13.23;39.78;95264.78;5037198;28;20221;-80
2021/05/08 09:38:06;;;;;;;2.67;2.47;;;13.30;58.60;;;13.21;40.51;95251.84;5037358;28;20222;-80
2021/05/08 09:40:35;;;;;;;2.60;2.22;;;13.30;59.60;;;13.33;40.94;95257.34;5053483;28;20211;-79
2021/05/08 09:43:08;;;;;;;2.63;2.35;;;13.40;60.20;;;13.40;40.75;95247.66;5036587;28;20226;-80
2021/05/08 09:45:39;;;;;;;2.88;2.47;;;13.40;59.90;;;13.42;37.62;95256.16;5037171;28;20657;-80
2021/05/08 09:48:27;;;;;;;2.60;2.40;;;13.50;57.80;;;13.48;39.84;95253.75;5053696;28;20654;-81
2021/05/08 09:51:16;;;;;;;2.35;2.15;;;13.50;59.30;;;13.57;40.08;95239.34;5038558;28;20211;-80
2021/05/08 09:53:44;;;;;;;2.40;2.20;;;13.60;59.10;;;13.64;40.08;95240.16;5053555;28;20229;-80
2021/05/08 09:56:36;;;;;;;2.58;2.38;;;13.70;59.50;;;13.73;40.18;95232.84;5036814;28;20203;-81
2021/05/08 09:59:30;;;;;;;3.15;2.78;;;13.70;59.50;;;13.80;39.86;95249.47;5036945;28;20215;-80
2021/05/08 10:02:03;;;;;;;2.28;2.08;;;13.80;59.40;;;13.93;39.99;95243.41;5053538;28;20231;-80
2021/05/08 10:04:39;;;;;;;2.45;2.17;;;13.90;59.50;;;14.04;38.37;95248.03;5053248;28;20206;-81
2021/05/08 10:07:12;;;;;;;2.70;2.50;;;14.00;59.20;;;14.14;38.78;95233.63;5037350;28;20275;-80
2021/05/08 10:09:44;;;;;;;2.70;2.28;;;14.10;58.40;;;14.20;38.90;95235.44;5037089;28;20198;-81
2021/05/08 10:12:17;;;;;;;2.58;2.10;;;14.10;58.40;;;14.25;38.49;95225.88;5037091;28;21148;-81
2021/05/08 10:14:49;;;;;;;2.03;1.90;;;14.20;58.50;;;14.34;39.49;95228.28;5053413;28;20213;-81
2021/05/08 10:17:25;;;;;;;2.30;2.10;;;14.30;58.60;;;14.43;38.72;95215.66;5053489;28;20608;-81
2021/05/08 10:20:10;;;;;;;4.30;3.90;;;14.50;58.70;;;14.52;39.78;95211.78;5053438;28;20683;-82
2021/05/08 10:22:46;;;;;;;3.17;2.88;;;14.50;58.90;;;14.63;39.67;95207.69;5036904;28;20233;-83
2021/05/08 10:25:14;;;;;;;2.38;2.17;;;14.50;58.90;;;14.72;39.79;95214.38;5036960;28;20273;-83
2021/05/08 10:27:41;;;;;;;2.20;2.05;;;14.60;58.90;;;14.81;39.82;95209.69;5053571;28;20229;-82
2021/05/08 10:30:17;;;;;;;2.25;1.90;;;14.70;59.10;;;14.88;39.83;95213.91;5037104;28;20357;-82
2021/05/08 10:32:49;;;;;;;2.40;2.10;;;14.80;59.20;;;15.00;38.67;95198.19;5057184;28;20222;-83
2021/05/08 10:35:26;;;;;;;1.88;1.77;;;14.90;58.20;;;15.07;39.14;95192.06;5039933;28;20199;-83